Time;durP1;ratioP1;P1;durP2;ratioP2;P2;SDS_P1;SDS_P2;PMS_P1;PMS_P2;Temp;Humidity;BMP_temperature;BMP_pressure;BME280_temperature;BME280_humidity;BME280_pressure;Samples;Min_cycle;Max_cycle;Signal;HPM_P1;HPM_P2
2022/01/19 00:02:40;;;;;;;23.35;9.70;;;;;;;0.18;100.00;100332.97;2141588;83;21020;-84
2022/01/19 00:05:40;;;;;;;34.40;12.23;;;;;;;0.17;100.00;100346.73;2144851;82;21471;-85
2022/01/19 00:08:41;;;;;;;24.90;8.95;;;;;;;0.18;100.00;100338.12;2138826;83;20984;-84
2022/01/19 00:11:42;;;;;;;21.95;9.50;;;;;;;0.20;100.00;100322.58;2134535;83;20977;-85
2022/01/19 00:14:43;;;;;;;26.00;8.60;;;;;;;0.21;100.00;100322.95;2134490;83;21468;-84
2022/01/19 00:17:44;;;;;;;23.35;8.60;;;;;;;0.21;100.00;100326.36;2134512;83;20977;-84
2022/01/19 00:20:45;;;;;;;27.48;10.88;;;;;;;0.27;100.00;100322.64;2134523;83;21047;-84
2022/01/19 00:23:45;;;;;;;24.82;10.58;;;;;;;0.33;100.00;100318.94;2140710;83;20929;-84
2022/01/19 00:26:47;;;;;;;20.68;9.38;;;;;;;0.36;100.00;100318.31;2148189;83;21040;-85
2022/01/19 00:29:48;;;;;;;36.08;10.72;;;;;;;0.37;100.00;100314.03;2128095;83;20981;-85
2022/01/19 00:32:48;;;;;;;28.73;10.08;;;;;;;0.35;100.00;100301.66;2113263;83;21083;-85
2022/01/19 00:35:49;;;;;;;37.90;11.70;;;;;;;0.34;100.00;100302.11;2135837;83;20956;-85
2022/01/19 00:38:50;;;;;;;23.50;9.25;;;;;;;0.41;100.00;100309.09;2134860;83;21579;-85
2022/01/19 00:41:51;;;;;;;28.92;9.98;;;;;;;0.45;100.00;100308.84;2134630;83;20985;-84
2022/01/19 00:44:52;;;;;;;25.72;9.63;;;;;;;0.50;100.00;100299.15;2134463;83;21080;-85
2022/01/19 00:47:53;;;;;;;20.72;7.90;;;;;;;0.52;100.00;100305.52;2146806;82;20969;-85
2022/01/19 00:50:53;;;;;;;20.02;9.63;;;;;;;0.55;100.00;100309.24;2095787;85;21440;-85
2022/01/19 00:53:54;;;;;;;30.10;8.53;;;;;;;0.59;100.00;100304.30;2098671;85;20989;-85
2022/01/19 00:56:55;;;;;;;21.93;9.33;;;;;;;0.65;100.00;100289.82;2098795;85;21519;-84
2022/01/19 00:59:56;;;;;;;22.30;9.18;;;;;;;0.64;100.00;100292.02;2105897;84;21343;-85
2022/01/19 01:02:57;;;;;;;32.75;10.08;;;;;;;0.64;100.00;100289.45;2114137;84;21051;-85
2022/01/19 01:05:57;;;;;;;20.60;8.50;;;;;;;0.65;100.00;100294.98;2106323;84;21020;-84
2022/01/19 01:08:58;;;;;;;21.42;9.75;;;;;;;0.63;100.00;100281.77;2070957;86;20976;-84
2022/01/19 01:12:10;;;;;;;26.48;9.65;;;;;;;0.61;100.00;100282.30;2065392;86;20985;-84
2022/01/19 01:18:24;;;;;;;28.45;10.25;;;;;;;0.62;100.00;100287.83;2089932;85;21043;-84
2022/01/19 01:21:24;;;;;;;20.60;9.73;;;;;;;0.61;100.00;100271.53;2088394;85;21035;-84
2022/01/19 01:24:25;;;;;;;26.57;9.98;;;;;;;0.61;100.00;100270.70;2087855;85;20996;-84
2022/01/19 01:27:26;;;;;;;32.90;10.82;;;;;;;0.60;100.00;100260.84;2088374;85;21024;-85
2022/01/19 01:30:27;;;;;;;21.33;8.93;;;;;;;0.61;100.00;100257.36;2088539;85;21135;-84
2022/01/19 01:33:28;;;;;;;28.55;10.93;;;;;;;0.62;100.00;100251.74;2083672;85;20968;-85
2022/01/19 01:36:28;;;;;;;31.90;11.50;;;;;;;0.60;100.00;100247.96;2065925;86;21036;-84
2022/01/19 01:39:29;;;;;;;28.83;11.85;;;;;;;0.66;100.00;100233.93;2106760;84;21507;-84
2022/01/19 01:42:30;;;;;;;28.83;11.90;;;;;;;0.65;100.00;100227.94;2092154;85;21035;-84
2022/01/19 01:45:33;;;;;;;26.30;9.80;;;;;;;0.72;100.00;100213.80;2092193;85;21488;-83
2022/01/19 01:48:41;;;;;;;25.27;10.65;;;;;;;0.74;100.00;100197.81;2075646;84;21529;-84
2022/01/19 01:54:55;;;;;;;36.35;14.83;;;;;;;0.68;100.00;100187.81;2106719;84;21035;-84
2022/01/19 01:57:56;;;;;;;43.75;13.98;;;;;;;0.66;100.00;100181.08;2074093;86;21019;-84
2022/01/19 02:00:57;;;;;;;36.33;13.93;;;;;;;0.63;100.00;100177.36;2100767;84;20981;-84
2022/01/19 02:03:57;;;;;;;30.95;14.15;;;;;;;0.64;100.00;100182.45;2067138;86;21106;-84
2022/01/19 02:07:30;;;;;;;28.87;12.93;;;;;;;0.63;100.00;100186.37;2097616;85;21016;-84
2022/01/19 02:10:29;;;;;;;38.73;14.03;;;;;;;0.64;100.00;100194.48;2061384;86;21025;-84
2022/01/19 02:16:50;;;;;;;28.65;11.93;;;;;;;0.63;100.00;100200.55;2139920;83;21480;-83
2022/01/19 02:22:53;;;;;;;28.32;13.40;;;;;;;0.65;100.00;100209.06;2147756;83;21048;-84
2022/01/19 02:25:54;;;;;;;39.00;14.23;;;;;;;0.59;100.00;100210.66;2148637;83;21458;-84
2022/01/19 02:41:52;;;;;;;33.67;14.25;;;;;;;0.65;100.00;100185.87;2089337;85;21123;-84
2022/01/19 02:51:13;;;;;;;33.02;13.80;;;;;;;0.56;100.00;100171.25;2066910;86;21614;-84
2022/01/19 02:54:13;;;;;;;35.17;13.98;;;;;;;0.58;100.00;100162.61;2066872;86;21061;-84
2022/01/19 02:57:15;;;;;;;35.90;15.43;;;;;;;0.62;100.00;100155.07;2070326;85;21080;-84
2022/01/19 03:10:01;;;;;;;28.90;14.15;;;;;;;0.59;100.00;100139.78;2073732;86;21042;-83
2022/01/19 03:13:02;;;;;;;34.88;15.08;;;;;;;0.56;100.00;100135.17;2122790;83;22195;-83
2022/01/19 03:16:02;;;;;;;32.65;14.90;;;;;;;0.56;100.00;100133.88;2151008;82;21024;-83
2022/01/19 03:19:03;;;;;;;28.02;14.60;;;;;;;0.60;100.00;100135.82;2157741;82;21020;-82
2022/01/19 03:22:04;;;;;;;31.37;16.40;;;;;;;0.65;100.00;100138.17;2158210;82;21012;-83
2022/01/19 03:25:11;;;;;;;40.12;14.95;;;;;;;0.66;100.00;100133.39;2158328;82;20965;-82
2022/01/19 03:28:08;;;;;;;37.95;15.08;;;;;;;0.67;100.00;100136.34;2157834;82;21084;-83
2022/01/19 03:31:09;;;;;;;27.80;13.55;;;;;;;0.68;100.00;100132.38;2157554;82;21035;-83
2022/01/19 03:34:11;;;;;;;32.45;14.70;;;;;;;0.70;100.00;100126.68;2147405;82;20949;-83
2022/01/19 03:37:12;;;;;;;31.10;14.35;;;;;;;0.70;100.00;100117.66;2142825;83;21067;-82
2022/01/19 03:40:13;;;;;;;34.13;14.73;;;;;;;0.63;100.00;100116.77;2142807;83;21000;-84
2022/01/19 03:43:14;;;;;;;35.83;15.80;;;;;;;0.56;100.00;100115.00;2149477;83;21076;-84
2022/01/19 03:46:16;;;;;;;42.17;16.07;;;;;;;0.56;100.00;100115.00;2150958;82;21053;-84
2022/01/19 03:49:23;;;;;;;159.72;49.38;;;;;;;0.55;100.00;100106.44;2134476;82;21055;-83
2022/01/19 03:52:19;;;;;;;92.40;29.32;;;;;;;0.61;100.00;100113.00;2140197;82;21024;-84
2022/01/19 03:55:20;;;;;;;48.70;17.67;;;;;;;0.56;100.00;100102.95;2149039;82;21015;-84
2022/01/19 03:58:21;;;;;;;44.65;15.30;;;;;;;0.54;100.00;100096.19;2145691;82;20949;-84
2022/01/19 04:01:21;;;;;;;42.00;16.87;;;;;;;0.55;100.00;100092.73;2145837;82;20970;-83
2022/01/19 04:04:40;;;;;;;31.42;15.03;;;;;;;0.57;100.00;100092.17;2143791;83;21084;-84
2022/01/19 04:07:37;;;;;;;36.70;15.13;;;;;;;0.60;100.00;100084.27;2147613;83;21051;-84
2022/01/19 04:10:39;;;;;;;36.75;14.40;;;;;;;0.58;100.00;100069.35;2154790;83;21580;-84
2022/01/19 04:14:21;;;;;;;26.73;12.95;;;;;;;0.60;100.00;100064.94;2148433;83;21060;-84
2022/01/19 04:17:01;;;;;;;24.85;12.23;;;;;;;0.60;100.00;100058.48;2143198;83;20977;-84
2022/01/19 04:20:01;;;;;;;28.47;14.23;;;;;;;0.61;100.00;100058.03;2154857;83;20961;-84
2022/01/19 04:23:02;;;;;;;24.20;13.38;;;;;;;0.59;100.00;100052.14;2150964;83;21512;-84
2022/01/19 04:26:03;;;;;;;23.62;11.15;;;;;;;0.61;100.00;100051.59;2144288;83;20957;-84
2022/01/19 04:29:04;;;;;;;28.25;13.40;;;;;;;0.61;100.00;100045.97;2144328;83;21484;-84
2022/01/19 04:32:11;;;;;;;31.15;12.78;;;;;;;0.62;100.00;100036.03;2144139;83;20981;-84
2022/01/19 04:35:10;;;;;;;26.27;12.03;;;;;;;0.62;100.00;100039.07;2115009;84;21152;-84
2022/01/19 04:45:09;;;;;;;24.47;11.95;;;;;;;0.74;100.00;100012.63;2146022;83;21480;-84
2022/01/19 04:48:20;;;;;;;26.05;12.90;;;;;;;0.79;100.00;100004.98;2143095;83;21076;-85
2022/01/19 05:01:34;;;;;;;24.47;12.23;;;;;;;0.79;100.00;99991.27;2137353;83;21024;-85
2022/01/19 05:04:44;;;;;;;20.60;10.75;;;;;;;0.75;100.00;99973.03;2134202;83;21024;-84
2022/01/19 05:07:53;;;;;;;16.65;9.85;;;;;;;0.75;100.00;99967.88;2132511;83;20989;-85
2022/01/19 05:14:04;;;;;;;25.77;12.93;;;;;;;0.75;100.00;99964.84;2139127;83;21512;-85
2022/01/19 05:17:04;;;;;;;24.85;12.55;;;;;;;0.78;100.00;99968.98;2139676;83;21116;-84
2022/01/19 05:20:05;;;;;;;22.20;12.50;;;;;;;0.80;100.00;99967.97;2091287;85;21056;-84
2022/01/19 05:23:06;;;;;;;26.90;12.95;;;;;;;0.80;100.00;99956.37;2137228;83;21467;-85
2022/01/19 05:26:07;;;;;;;26.85;12.88;;;;;;;0.80;100.00;99960.70;2141602;83;21062;-85
2022/01/19 05:29:07;;;;;;;28.98;13.45;;;;;;;0.83;100.00;99962.66;2138224;83;20968;-84
2022/01/19 05:32:09;;;;;;;24.35;13.10;;;;;;;0.78;100.00;99943.20;2137001;82;21000;-84
2022/01/19 05:35:09;;;;;;;28.62;13.48;;;;;;;0.92;100.00;99954.03;2140295;82;20965;-84
2022/01/19 05:38:10;;;;;;;30.80;18.05;;;;;;;0.95;100.00;99959.83;2109707;84;21518;-84
2022/01/19 05:41:11;;;;;;;38.10;16.95;;;;;;;0.96;100.00;99957.62;2109911;84;20997;-84
2022/01/19 05:44:11;;;;;;;28.62;14.65;;;;;;;0.97;100.00;99945.55;2133364;83;21118;-84
2022/01/19 05:47:12;;;;;;;26.02;14.35;;;;;;;1.02;100.00;99943.55;2109491;84;21056;-84
2022/01/19 05:50:12;;;;;;;30.32;14.55;;;;;;;1.01;100.00;99939.31;2109424;84;21543;-85
2022/01/19 05:53:13;;;;;;;29.92;14.90;;;;;;;1.02;100.00;99933.23;2120743;83;20970;-84
2022/01/19 05:56:14;;;;;;;30.40;13.43;;;;;;;0.99;100.00;99931.64;2136315;83;21468;-84
2022/01/19 05:59:14;;;;;;;24.60;13.83;;;;;;;0.98;100.00;99926.58;2136126;83;21000;-84
2022/01/19 06:02:16;;;;;;;25.60;12.75;;;;;;;0.94;100.00;99928.97;2136076;82;21469;-83
2022/01/19 06:05:17;;;;;;;27.70;14.85;;;;;;;0.87;100.00;99925.91;2134496;83;21417;-85
2022/01/19 06:08:29;;;;;;;27.65;15.03;;;;;;;0.85;100.00;99918.73;2150031;82;20965;-85
2022/01/19 06:11:20;;;;;;;22.87;14.23;;;;;;;0.88;100.00;99914.67;2162387;82;21085;-84
2022/01/19 06:14:21;;;;;;;24.67;13.05;;;;;;;0.96;100.00;99912.94;2136814;82;20980;-85
2022/01/19 06:17:21;;;;;;;36.03;14.65;;;;;;;0.96;100.00;99912.94;2136322;83;20956;-85
2022/01/19 06:20:22;;;;;;;29.55;15.75;;;;;;;0.99;100.00;99914.05;2136181;83;21067;-85
2022/01/19 06:23:23;;;;;;;24.92;14.43;;;;;;;0.99;100.00;99913.58;2135018;83;21017;-85
2022/01/19 06:26:24;;;;;;;28.40;14.28;;;;;;;1.03;100.00;99912.96;2134456;83;20993;-85
2022/01/19 06:29:24;;;;;;;26.70;14.07;;;;;;;1.05;100.00;99896.93;2134703;83;21008;-82
2022/01/19 06:32:25;;;;;;;28.90;15.25;;;;;;;1.06;100.00;99900.70;2135381;83;20928;-85
2022/01/19 06:35:26;;;;;;;29.37;15.85;;;;;;;1.09;100.00;99901.80;2136421;83;21506;-83
2022/01/19 06:38:27;;;;;;;23.47;14.38;;;;;;;1.12;100.00;99895.19;2134844;83;20941;-88
2022/01/19 06:41:28;;;;;;;26.90;14.93;;;;;;;1.15;100.00;99896.75;2099458;85;21307;-84
2022/01/19 06:44:29;;;;;;;30.25;15.25;;;;;;;1.17;100.00;99885.88;2145637;83;21578;-86
2022/01/19 06:47:29;;;;;;;30.17;17.73;;;;;;;1.17;100.00;99891.03;2091262;85;20946;-86
2022/01/19 06:50:33;;;;;;;32.20;17.02;;;;;;;1.17;100.00;99883.75;2136150;83;21052;-85
2022/01/19 06:53:34;;;;;;;32.00;15.72;;;;;;;1.16;100.00;99882.92;2148246;83;21045;-83
2022/01/19 06:56:37;;;;;;;32.93;15.65;;;;;;;1.21;100.00;99880.09;2148377;83;21504;-86
2022/01/19 06:59:37;;;;;;;34.90;16.77;;;;;;;1.23;100.00;99882.11;2146266;82;21048;-83
2022/01/19 07:02:38;;;;;;;33.55;17.37;;;;;;;1.28;100.00;99880.06;2142393;83;21076;-85
2022/01/19 07:05:39;;;;;;;35.38;15.15;;;;;;;1.33;100.00;99868.55;2144190;83;20977;-84
2022/01/19 07:08:39;;;;;;;26.23;15.10;;;;;;;1.40;100.00;99865.97;2143520;83;20960;-85
2022/01/19 07:11:40;;;;;;;26.15;13.83;;;;;;;1.43;100.00;99862.38;2143659;82;21491;-88
2022/01/19 07:14:41;;;;;;;27.15;14.73;;;;;;;1.42;100.00;99855.55;2158260;82;20996;-86
2022/01/19 07:17:42;;;;;;;26.10;14.38;;;;;;;1.42;100.00;99859.42;2135715;83;21337;-88
2022/01/19 07:20:43;;;;;;;29.92;15.60;;;;;;;1.38;100.00;99852.80;2146238;83;20969;-85
2022/01/19 07:23:44;;;;;;;24.75;15.00;;;;;;;1.35;100.00;99838.78;2144278;83;21084;-86
2022/01/19 07:26:44;;;;;;;28.52;14.65;;;;;;;1.36;100.00;99833.98;2087583;84;21005;-85
2022/01/19 07:29:46;;;;;;;28.23;17.02;;;;;;;1.35;100.00;99834.44;2145183;83;20949;-86
2022/01/19 07:32:49;;;;;;;29.07;16.10;;;;;;;1.37;100.00;99823.59;2144145;83;21054;-86
2022/01/19 07:35:52;;;;;;;30.90;16.02;;;;;;;1.42;100.00;99816.84;2144597;83;21041;-86
2022/01/19 07:38:53;;;;;;;22.70;15.43;;;;;;;1.44;100.00;99807.24;2149327;83;21012;-82
2022/01/19 07:41:55;;;;;;;30.82;16.02;;;;;;;1.54;100.00;99794.59;2144501;83;21001;-87
2022/01/19 07:44:56;;;;;;;31.48;16.50;;;;;;;1.60;100.00;99799.38;2143950;83;21063;-85
2022/01/19 07:47:57;;;;;;;29.90;15.90;;;;;;;1.71;100.00;99797.77;2140822;83;20965;-84
2022/01/19 07:50:58;;;;;;;25.62;15.00;;;;;;;1.80;100.00;99796.83;2145315;83;21040;-84
2022/01/19 07:53:58;;;;;;;21.52;13.50;;;;;;;1.86;100.00;99792.11;2153334;83;21020;-84
2022/01/19 07:56:59;;;;;;;21.15;13.38;;;;;;;1.91;100.00;99794.38;2153099;83;21091;-85
2022/01/19 08:00:00;;;;;;;34.67;19.95;;;;;;;1.92;100.00;99787.84;2146181;83;21511;-86
2022/01/19 08:03:01;;;;;;;55.10;24.45;;;;;;;1.96;100.00;99794.92;2136263;83;21023;-85
2022/01/19 08:06:01;;;;;;;38.02;17.57;;;;;;;2.01;100.00;99781.23;2136155;83;21469;-85
2022/01/19 08:09:02;;;;;;;35.43;17.95;;;;;;;2.02;100.00;99788.08;2136081;83;21015;-87
2022/01/19 08:12:03;;;;;;;29.70;16.20;;;;;;;2.01;100.00;99781.23;2137384;83;20945;-86
2022/01/19 08:15:04;;;;;;;36.95;17.48;;;;;;;2.03;100.00;99778.58;2142710;83;21606;-85
2022/01/19 08:18:04;;;;;;;28.45;14.75;;;;;;;2.09;100.00;99775.57;2139262;83;20980;-85
2022/01/19 08:21:05;;;;;;;32.65;16.00;;;;;;;2.11;100.00;99769.40;2141882;83;21421;-85
2022/01/19 08:24:06;;;;;;;32.23;14.58;;;;;;;2.15;100.00;99780.34;2134509;83;21067;-86
2022/01/19 08:27:07;;;;;;;30.82;15.70;;;;;;;2.20;100.00;99770.09;2091202;85;21100;-86
2022/01/19 08:30:08;;;;;;;26.65;14.87;;;;;;;2.25;100.00;99759.44;2134083;83;21611;-84
2022/01/19 08:33:10;;;;;;;23.45;14.63;;;;;;;2.25;100.00;99759.44;2091220;85;21068;-83
2022/01/19 08:36:11;;;;;;;24.18;14.28;;;;;;;2.32;100.00;99759.39;2135625;83;21024;-86
2022/01/19 08:39:12;;;;;;;29.67;14.75;;;;;;;2.36;100.00;99758.25;2136264;83;21040;-86
2022/01/19 08:42:13;;;;;;;28.57;15.28;;;;;;;2.43;100.00;99750.45;2136129;83;21000;-86
2022/01/19 08:45:15;;;;;;;26.07;13.58;;;;;;;2.50;100.00;99750.88;2135790;83;21644;-86
2022/01/19 08:48:16;;;;;;;20.08;11.43;;;;;;;2.55;100.00;99743.63;2082232;85;22115;-85
2022/01/19 08:51:17;;;;;;;27.07;14.53;;;;;;;2.59;100.00;99740.39;2086464;85;20999;-86
2022/01/19 08:54:17;;;;;;;25.35;14.30;;;;;;;2.65;100.00;99730.46;2085604;85;21040;-87
2022/01/19 08:57:18;;;;;;;25.50;15.32;;;;;;;2.74;100.00;99722.08;2085154;85;21094;-85
2022/01/19 09:00:19;;;;;;;28.35;11.83;;;;;;;2.82;100.00;99724.94;2081852;85;20961;-86
2022/01/19 09:03:20;;;;;;;21.70;12.20;;;;;;;2.78;100.00;99728.67;2145995;83;21056;-94
2022/01/19 09:06:21;;;;;;;19.23;12.10;;;;;;;2.85;100.00;99720.86;2144838;83;20995;-87
2022/01/19 09:09:21;;;;;;;18.10;11.50;;;;;;;2.85;100.00;99719.56;2087493;85;21086;-87
2022/01/19 09:12:22;;;;;;;18.45;11.63;;;;;;;2.91;100.00;99713.59;2146765;83;21462;-83
2022/01/19 09:15:23;;;;;;;18.20;11.25;;;;;;;2.97;100.00;99711.41;2137545;83;20950;-84
2022/01/19 09:18:24;;;;;;;25.88;12.85;;;;;;;2.96;100.00;99697.30;2135576;83;21008;-83
2022/01/19 09:21:25;;;;;;;29.48;13.00;;;;;;;2.94;100.00;99706.94;2086458;85;20965;-82
2022/01/19 09:24:25;;;;;;;27.42;13.53;;;;;;;2.98;100.00;99697.54;2082203;83;21072;-84
2022/01/19 09:27:26;;;;;;;27.27;12.05;;;;;;;2.96;100.00;99700.70;2145724;83;20991;-84
2022/01/19 09:30:27;;;;;;;26.82;11.25;;;;;;;2.95;100.00;99687.42;2130662;83;21484;-84
2022/01/19 09:33:30;;;;;;;23.55;13.45;;;;;;;2.98;100.00;99682.02;2125813;83;21033;-84
2022/01/19 09:36:34;;;;;;;20.72;11.90;;;;;;;3.00;100.00;99677.55;2134012;83;20993;-87
2022/01/19 09:39:34;;;;;;;16.95;10.28;;;;;;;3.06;100.00;99676.30;2136056;83;21016;-84
2022/01/19 09:42:35;;;;;;;22.37;11.35;;;;;;;3.16;100.00;99673.89;2136346;83;21556;-86
2022/01/19 09:45:36;;;;;;;15.85;9.58;;;;;;;3.26;100.00;99670.53;2136669;83;21084;-88
2022/01/19 09:48:37;;;;;;;25.40;11.33;;;;;;;3.30;100.00;99664.22;2136761;83;21271;-88
2022/01/19 09:51:37;;;;;;;23.60;11.83;;;;;;;3.34;100.00;99663.05;2133549;83;20974;-88
2022/01/19 09:54:38;;;;;;;24.98;13.15;;;;;;;3.44;100.00;99676.16;2087064;85;20981;-85
2022/01/19 09:57:39;;;;;;;19.10;11.93;;;;;;;3.51;100.00;99671.36;2088761;85;20923;-87
2022/01/19 10:00:40;;;;;;;22.40;12.07;;;;;;;3.53;100.00;99671.60;2088725;85;21410;-87
2022/01/19 10:03:41;;;;;;;20.05;12.15;;;;;;;3.58;100.00;99675.17;2092910;83;21060;-86
2022/01/19 10:06:41;;;;;;;21.97;13.18;;;;;;;3.62;100.00;99671.41;2136976;83;20986;-88
2022/01/19 10:09:42;;;;;;;20.85;11.03;;;;;;;3.66;100.00;99671.55;2130978;83;21027;-87
2022/01/19 10:19:21;;;;;;;24.82;12.50;;;;;;;3.65;100.00;99658.22;2142843;83;20995;-85
2022/01/19 10:22:24;;;;;;;22.87;12.28;;;;;;;3.64;100.00;99647.50;2137200;83;21008;-92
2022/01/19 10:25:25;;;;;;;18.77;11.63;;;;;;;3.57;100.00;99650.21;2137470;83;21051;-87
2022/01/19 10:28:25;;;;;;;19.10;12.07;;;;;;;3.57;100.00;99657.52;2134704;83;20941;-87
2022/01/19 10:31:26;;;;;;;21.57;12.20;;;;;;;3.61;100.00;99651.63;2134753;83;21459;-86
2022/01/19 10:34:27;;;;;;;23.05;12.30;;;;;;;3.66;100.00;99643.88;2139824;82;21045;-87
2022/01/19 10:37:28;;;;;;;25.85;13.25;;;;;;;3.63;100.00;99640.67;2141149;83;21051;-85
2022/01/19 10:40:29;;;;;;;22.77;12.23;;;;;;;3.65;100.00;99634.44;2143573;83;20998;-88
2022/01/19 10:43:30;;;;;;;18.35;10.82;;;;;;;3.64;100.00;99631.49;2145531;83;20987;-86
2022/01/19 10:46:30;;;;;;;19.45;10.78;;;;;;;3.63;100.00;99622.55;2144749;83;21040;-90
2022/01/19 10:49:31;;;;;;;16.85;10.58;;;;;;;3.59;100.00;99612.07;2143180;83;21543;-89
2022/01/19 10:52:32;;;;;;;19.50;11.00;;;;;;;3.61;100.00;99616.19;2139832;83;21004;-89
2022/01/19 10:55:33;;;;;;;19.55;12.20;;;;;;;3.65;100.00;99602.53;2134592;83;21025;-88
2022/01/19 10:58:34;;;;;;;15.05;9.93;;;;;;;3.69;100.00;99597.50;2134375;83;21075;-88
2022/01/19 11:01:34;;;;;;;18.98;12.00;;;;;;;3.69;100.00;99594.44;2175753;81;21551;-87
2022/01/19 11:04:37;;;;;;;17.10;12.25;;;;;;;3.71;100.00;99590.43;2114231;84;21000;-89
2022/01/19 11:07:39;;;;;;;16.85;12.05;;;;;;;3.71;100.00;99580.06;2099484;84;21065;-91
2022/01/19 11:10:40;;;;;;;20.32;11.73;;;;;;;3.68;100.00;99572.53;2130076;82;21009;-91
2022/01/19 11:13:42;;;;;;;24.98;12.95;;;;;;;3.66;100.00;99558.41;2127440;83;21020;-89
2022/01/19 11:16:42;;;;;;;45.12;24.98;;;;;;;3.61;100.00;99553.21;2070392;84;21004;-91
2022/01/19 11:19:46;;;;;;;34.78;22.95;;;;;;;3.61;100.00;99554.03;2173965;82;20977;-90
2022/01/19 11:22:47;;;;;;;36.20;22.40;;;;;;;3.57;100.00;99547.92;2174151;82;21069;-89
2022/01/19 11:25:47;;;;;;;29.85;19.85;;;;;;;3.55;100.00;99545.89;2108721;84;21017;-90
2022/01/19 11:28:49;;;;;;;63.33;43.05;;;;;;;3.52;100.00;99541.77;2136668;82;21541;-92
2022/01/19 11:31:50;;;;;;;32.28;23.77;;;;;;;3.51;100.00;99540.59;2084024;83;21001;-95
2022/01/19 11:34:53;;;;;;;29.12;18.85;;;;;;;3.47;100.00;99532.22;2080079;84;21479;-91
2022/01/19 11:37:54;;;;;;;37.28;26.95;;;;;;;3.44;100.00;99525.98;2078275;86;21093;-92
2022/01/19 11:40:55;;;;;;;24.18;17.20;;;;;;;3.46;100.00;99521.97;2077600;84;21039;-91
2022/01/19 11:43:56;;;;;;;25.00;17.10;;;;;;;3.51;100.00;99509.05;2069082;86;21108;-91
2022/01/19 11:46:57;;;;;;;33.73;29.30;;;;;;;3.50;100.00;99509.17;2126396;84;21061;-90
2022/01/19 11:49:58;;;;;;;19.85;15.43;;;;;;;3.45;100.00;99497.84;2126696;84;21014;-89
2022/01/19 11:53:06;;;;;;;19.37;12.43;;;;;;;3.42;100.00;99483.85;2126426;84;21008;-89
2022/01/19 11:56:01;;;;;;;14.35;11.33;;;;;;;3.38;100.00;99487.16;2131789;82;21005;-87
2022/01/19 11:59:02;;;;;;;21.62;13.72;;;;;;;3.36;100.00;99483.00;2158988;82;20985;-90
2022/01/19 12:02:03;;;;;;;24.82;14.10;;;;;;;3.28;100.00;99471.92;2159219;82;21020;-88
2022/01/19 12:05:04;;;;;;;24.15;14.15;;;;;;;3.27;100.00;99482.40;2157512;81;21436;-90
2022/01/19 12:08:05;;;;;;;22.37;13.18;;;;;;;3.29;100.00;99475.34;2136164;81;20997;-88
2022/01/19 12:11:05;;;;;;;19.75;12.58;;;;;;;3.36;100.00;99465.70;2135773;83;21429;-88
2022/01/19 12:14:17;;;;;;;24.95;19.45;;;;;;;3.41;100.00;99452.44;2134957;83;21004;-85
2022/01/19 12:17:25;;;;;;;27.90;19.80;;;;;;;3.49;100.00;99443.62;2148649;81;20984;-86
2022/01/19 12:20:18;;;;;;;33.35;18.50;;;;;;;3.52;100.00;99434.31;2149495;83;21100;-88
2022/01/19 12:23:19;;;;;;;37.08;20.82;;;;;;;3.48;100.00;99431.61;2133598;83;20989;-89
2022/01/19 12:26:20;;;;;;;22.52;13.68;;;;;;;3.48;100.00;99433.38;2090500;85;21549;-86
2022/01/19 12:29:21;;;;;;;26.35;17.23;;;;;;;3.50;100.00;99430.20;2107562;84;21575;-88
2022/01/19 12:32:21;;;;;;;43.48;26.73;;;;;;;3.54;100.00;99426.42;2113155;84;21025;-89
2022/01/19 12:35:22;;;;;;;25.85;15.65;;;;;;;3.57;100.00;99415.38;2113474;84;21007;-89
2022/01/19 12:38:23;;;;;;;33.35;17.20;;;;;;;3.53;100.00;99415.23;2130766;84;21040;-92
2022/01/19 12:41:24;;;;;;;43.70;24.37;;;;;;;3.53;100.00;99411.83;2131691;84;21092;-92
2022/01/19 12:44:25;;;;;;;34.08;18.40;;;;;;;3.55;100.00;99402.98;2132085;84;21542;-92
2022/01/19 12:47:29;;;;;;;79.70;42.50;;;;;;;3.57;100.00;99397.25;2107937;84;21000;-93
2022/01/19 12:50:31;;;;;;;106.32;58.75;;;;;;;3.66;100.00;99385.35;2132220;84;21037;-92
2022/01/19 12:53:32;;;;;;;58.30;34.18;;;;;;;3.73;100.00;99384.37;2132502;84;21590;-93
2022/01/19 12:56:34;;;;;;;48.35;24.85;;;;;;;3.74;100.00;99386.02;2108003;84;21028;-93
2022/01/19 12:59:35;;;;;;;25.72;17.05;;;;;;;3.73;100.00;99378.73;2108103;84;21519;-93
2022/01/19 13:02:36;;;;;;;26.90;17.42;;;;;;;3.73;100.00;99384.37;2129086;84;21126;-92
2022/01/19 13:05:37;;;;;;;29.27;16.65;;;;;;;3.69;100.00;99372.97;2119658;84;21044;-92
2022/01/19 13:08:45;;;;;;;30.43;19.15;;;;;;;3.63;100.00;99376.03;2103557;84;21034;-89
2022/01/19 13:14:47;;;;;;;92.65;46.37;;;;;;;3.51;100.00;99376.17;2002710;87;21199;-88
2022/01/19 13:17:48;;;;;;;68.85;29.82;;;;;;;3.41;100.00;99365.70;1998780;88;21037;-92
2022/01/19 13:20:49;;;;;;;45.73;22.45;;;;;;;3.37;100.00;99358.63;1998971;89;21060;-89
2022/01/19 13:23:49;;;;;;;48.45;22.02;;;;;;;3.31;100.00;99353.94;2000096;89;21033;-91
2022/01/19 13:26:53;;;;;;;34.30;18.45;;;;;;;3.32;100.00;99339.23;2030515;87;21032;-92
2022/01/19 13:29:54;;;;;;;33.42;18.73;;;;;;;3.27;100.00;99324.52;2031429;86;21063;-92
2022/01/19 13:32:56;;;;;;;38.42;21.00;;;;;;;3.30;100.00;99317.82;2032636;84;21557;-91
2022/01/19 13:35:56;;;;;;;43.00;25.95;;;;;;;3.26;100.00;99320.28;2004079;88;21052;-93
2022/01/19 13:38:57;;;;;;;37.50;22.58;;;;;;;3.19;100.00;99319.92;1988615;86;21624;-92
2022/01/19 13:42:00;;;;;;;44.77;20.82;;;;;;;3.08;100.00;99320.75;1990664;89;20986;-89
2022/01/19 13:45:08;;;;;;;40.70;17.32;;;;;;;3.02;100.00;99312.65;1992107;89;21504;-92
2022/01/19 13:48:20;;;;;;;41.33;18.85;;;;;;;2.94;100.00;99307.23;2013515;88;21529;-90
2022/01/19 13:51:06;;;;;;;37.30;18.02;;;;;;;2.86;100.00;99307.81;1981097;90;21018;-88
2022/01/19 13:54:07;;;;;;;40.38;20.37;;;;;;;2.83;100.00;99295.09;1995968;89;21101;-88
2022/01/19 13:57:08;;;;;;;65.50;25.40;;;;;;;2.81;100.00;99285.34;1995583;89;21073;-90
2022/01/19 14:00:09;;;;;;;52.27;25.57;;;;;;;2.80;100.00;99274.17;1997982;89;21711;-88
2022/01/19 14:03:10;;;;;;;45.35;26.00;;;;;;;2.82;100.00;99268.87;1998111;88;21089;-91
2022/01/19 14:06:13;;;;;;;41.58;23.45;;;;;;;2.83;100.00;99268.78;1998523;89;21596;-87
2022/01/19 14:09:13;;;;;;;38.90;23.00;;;;;;;2.82;100.00;99269.69;1998847;87;21081;-93
2022/01/19 14:12:16;;;;;;;41.28;22.58;;;;;;;2.76;100.00;99260.31;2001269;84;20980;-87
2022/01/19 14:15:16;;;;;;;35.05;19.15;;;;;;;2.70;100.00;99265.94;2004373;87;21108;-87
2022/01/19 14:18:17;;;;;;;36.58;21.33;;;;;;;2.66;100.00;99260.66;2006592;88;21084;-87
2022/01/19 14:21:18;;;;;;;41.05;22.77;;;;;;;2.61;100.00;99258.88;2006135;89;21052;-87
2022/01/19 14:24:19;;;;;;;36.40;23.18;;;;;;;2.54;100.00;99256.73;2006234;89;20997;-87
2022/01/19 14:27:20;;;;;;;46.00;25.08;;;;;;;2.51;100.00;99255.69;2006125;89;21067;-87
2022/01/19 14:30:23;;;;;;;45.90;27.93;;;;;;;2.49;100.00;99256.28;2006265;89;21088;-88
2022/01/19 14:33:23;;;;;;;49.35;27.65;;;;;;;2.47;100.00;99249.55;2005902;89;21069;-88
2022/01/19 14:36:24;;;;;;;50.43;28.55;;;;;;;2.43;100.00;99242.52;2009145;87;21008;-90
2022/01/19 14:39:25;;;;;;;48.25;26.73;;;;;;;2.39;100.00;99227.36;2006315;89;21025;-89
2022/01/19 14:42:26;;;;;;;47.10;26.10;;;;;;;2.32;100.00;99230.87;2031672;86;21331;-86
2022/01/19 14:45:35;;;;;;;51.53;27.98;;;;;;;2.27;100.00;99223.91;2032973;87;21092;-86
2022/01/19 14:48:30;;;;;;;57.90;28.80;;;;;;;2.21;100.00;99230.85;2009067;87;21112;-88
2022/01/19 14:51:31;;;;;;;53.13;26.42;;;;;;;2.15;100.00;99227.42;2007536;89;21029;-88
2022/01/19 14:54:31;;;;;;;49.53;27.17;;;;;;;2.08;100.00;99224.45;2006869;89;21437;-87
2022/01/19 14:57:32;;;;;;;45.78;25.88;;;;;;;1.99;100.00;99213.52;2006357;88;21056;-89
2022/01/19 15:00:33;;;;;;;58.10;27.70;;;;;;;1.92;100.00;99208.00;2006286;89;21052;-89
2022/01/19 15:03:34;;;;;;;49.45;28.07;;;;;;;1.87;100.00;99203.63;2006239;89;21052;-90